sensor_id;sensor_type;location;lat;lon;timestamp;temperature;humidity
20773;DHT22;10546;50.674;4.616;2023-03-01T06:14:02;-2.00;99.90
20773;DHT22;10546;50.674;4.616;2023-03-01T06:16:28;-2.10;99.90
20773;DHT22;10546;50.674;4.616;2023-03-01T06:18:53;-2.00;99.90
20773;DHT22;10546;50.674;4.616;2023-03-01T06:21:19;-2.00;99.90
20773;DHT22;10546;50.674;4.616;2023-03-01T06:23:44;-2.00;99.90
20773;DHT22;10546;50.674;4.616;2023-03-01T06:26:10;-2.10;99.90
20773;DHT22;10546;50.674;4.616;2023-03-01T06:28:36;-2.10;99.90
20773;DHT22;10546;50.674;4.616;2023-03-01T06:31:01;-1.90;99.90
20773;DHT22;10546;50.674;4.616;2023-03-01T06:33:27;-2.20;99.90
20773;DHT22;10546;50.674;4.616;2023-03-01T06:35:56;-2.10;99.90
20773;DHT22;10546;50.674;4.616;2023-03-01T06:38:22;-2.00;99.90
20773;DHT22;10546;50.674;4.616;2023-03-01T06:40:54;-2.10;99.90
20773;DHT22;10546;50.674;4.616;2023-03-01T06:43:22;-2.00;99.90
20773;DHT22;10546;50.674;4.616;2023-03-01T06:45:48;-2.00;99.90
20773;DHT22;10546;50.674;4.616;2023-03-01T06:48:14;-2.10;99.90
20773;DHT22;10546;50.674;4.616;2023-03-01T06:50:40;-2.20;99.90
20773;DHT22;10546;50.674;4.616;2023-03-01T06:53:06;-2.20;99.90
20773;DHT22;10546;50.674;4.616;2023-03-01T06:55:32;-2.20;99.90
20773;DHT22;10546;50.674;4.616;2023-03-01T06:57:59;-2.20;99.90
20773;DHT22;10546;50.674;4.616;2023-03-01T07:00:25;-2.10;99.90
20773;DHT22;10546;50.674;4.616;2023-03-01T07:02:51;-2.10;99.90
20773;DHT22;10546;50.674;4.616;2023-03-01T07:05:17;-2.10;99.90
20773;DHT22;10546;50.674;4.616;2023-03-01T07:07:43;-2.10;99.90
20773;DHT22;10546;50.674;4.616;2023-03-01T07:10:09;-2.10;99.90
20773;DHT22;10546;50.674;4.616;2023-03-01T07:12:35;-2.00;99.90
20773;DHT22;10546;50.674;4.616;2023-03-01T07:15:01;-2.00;99.90
20773;DHT22;10546;50.674;4.616;2023-03-01T07:17:27;-1.90;99.90
20773;DHT22;10546;50.674;4.616;2023-03-01T07:19:53;-1.40;99.90
20773;DHT22;10546;50.674;4.616;2023-03-01T07:22:19;-1.10;99.90
20773;DHT22;10546;50.674;4.616;2023-03-01T07:24:44;-0.60;99.90
20773;DHT22;10546;50.674;4.616;2023-03-01T07:27:10;-0.70;99.90
20773;DHT22;10546;50.674;4.616;2023-03-01T07:29:36;-0.30;99.90
20773;DHT22;10546;50.674;4.616;2023-03-01T07:32:03;-0.10;99.90
20773;DHT22;10546;50.674;4.616;2023-03-01T07:34:30;0.40;99.90
20773;DHT22;10546;50.674;4.616;2023-03-01T07:36:56;1.20;99.90
20773;DHT22;10546;50.674;4.616;2023-03-01T07:39:22;2.30;99.90
20773;DHT22;10546;50.674;4.616;2023-03-01T07:41:50;2.90;99.90
20773;DHT22;10546;50.674;4.616;2023-03-01T07:44:16;3.90;99.90
20773;DHT22;10546;50.674;4.616;2023-03-01T07:46:42;3.70;99.90
20773;DHT22;10546;50.674;4.616;2023-03-01T07:49:09;4.30;99.90
20773;DHT22;10546;50.674;4.616;2023-03-01T07:51:34;4.20;99.90
20773;DHT22;10546;50.674;4.616;2023-03-01T07:54:00;5.00;99.90
20773;DHT22;10546;50.674;4.616;2023-03-01T07:56:25;5.60;99.90
20773;DHT22;10546;50.674;4.616;2023-03-01T07:58:51;6.10;99.90
20773;DHT22;10546;50.674;4.616;2023-03-01T08:01:19;6.30;99.90
20773;DHT22;10546;50.674;4.616;2023-03-01T08:03:45;6.70;99.90
20773;DHT22;10546;50.674;4.616;2023-03-01T08:06:12;6.50;99.90
20773;DHT22;10546;50.674;4.616;2023-03-01T08:08:39;6.50;99.90
20773;DHT22;10546;50.674;4.616;2023-03-01T08:11:06;6.30;99.90
20773;DHT22;10546;50.674;4.616;2023-03-01T08:13:32;6.20;99.90
20773;DHT22;10546;50.674;4.616;2023-03-01T08:16:06;5.80;99.90
20773;DHT22;10546;50.674;4.616;2023-03-01T08:18:32;6.00;99.90
20773;DHT22;10546;50.674;4.616;2023-03-01T08:21:05;6.50;99.90
20773;DHT22;10546;50.674;4.616;2023-03-01T08:23:31;6.40;99.90
20773;DHT22;10546;50.674;4.616;2023-03-01T08:26:14;6.50;99.90
20773;DHT22;10546;50.674;4.616;2023-03-01T08:28:41;6.40;99.90
20773;DHT22;10546;50.674;4.616;2023-03-01T08:33:40;6.50;99.90
20773;DHT22;10546;50.674;4.616;2023-03-01T08:36:06;5.90;99.90
20773;DHT22;10546;50.674;4.616;2023-03-01T08:38:33;5.10;99.90
20773;DHT22;10546;50.674;4.616;2023-03-01T08:41:00;5.70;99.90
20773;DHT22;10546;50.674;4.616;2023-03-01T08:43:26;5.60;99.90
20773;DHT22;10546;50.674;4.616;2023-03-01T08:45:55;5.30;99.90
20773;DHT22;10546;50.674;4.616;2023-03-01T08:48:32;4.80;99.90
20773;DHT22;10546;50.674;4.616;2023-03-01T08:51:13;4.30;99.90
20773;DHT22;10546;50.674;4.616;2023-03-01T08:53:52;4.30;99.90
20773;DHT22;10546;50.674;4.616;2023-03-01T08:56:19;4.80;99.90
20773;DHT22;10546;50.674;4.616;2023-03-01T08:58:48;4.60;99.90
20773;DHT22;10546;50.674;4.616;2023-03-01T09:01:16;4.90;99.90
20773;DHT22;10546;50.674;4.616;2023-03-01T09:03:44;5.50;99.90
20773;DHT22;10546;50.674;4.616;2023-03-01T09:06:12;5.90;99.90
20773;DHT22;10546;50.674;4.616;2023-03-01T09:08:41;6.30;99.90
20773;DHT22;10546;50.674;4.616;2023-03-01T09:11:10;6.80;99.90
20773;DHT22;10546;50.674;4.616;2023-03-01T09:13:36;6.80;99.90
20773;DHT22;10546;50.674;4.616;2023-03-01T09:16:03;6.40;99.90
20773;DHT22;10546;50.674;4.616;2023-03-01T09:18:30;5.90;99.90
20773;DHT22;10546;50.674;4.616;2023-03-01T09:21:07;5.70;99.90
20773;DHT22;10546;50.674;4.616;2023-03-01T09:23:37;6.00;99.90
20773;DHT22;10546;50.674;4.616;2023-03-01T09:26:22;6.40;99.90
20773;DHT22;10546;50.674;4.616;2023-03-01T09:28:50;6.20;99.90
20773;DHT22;10546;50.674;4.616;2023-03-01T09:31:17;6.60;99.90
20773;DHT22;10546;50.674;4.616;2023-03-01T09:33:46;7.30;99.90
20773;DHT22;10546;50.674;4.616;2023-03-01T09:36:14;7.20;99.90
20773;DHT22;10546;50.674;4.616;2023-03-01T09:38:41;7.20;99.90
20773;DHT22;10546;50.674;4.616;2023-03-01T09:43:52;7.40;99.90
20773;DHT22;10546;50.674;4.616;2023-03-01T09:46:22;7.50;99.90
20773;DHT22;10546;50.674;4.616;2023-03-01T09:48:57;7.40;99.90
20773;DHT22;10546;50.674;4.616;2023-03-01T09:51:35;7.00;99.90
20773;DHT22;10546;50.674;4.616;2023-03-01T09:54:02;7.10;99.90
20773;DHT22;10546;50.674;4.616;2023-03-01T09:59:29;7.30;99.90
20773;DHT22;10546;50.674;4.616;2023-03-01T10:04:47;6.90;99.90
20773;DHT22;10546;50.674;4.616;2023-03-01T10:09:57;6.80;99.90
20773;DHT22;10546;50.674;4.616;2023-03-01T10:12:27;7.70;99.90
20773;DHT22;10546;50.674;4.616;2023-03-01T10:17:38;8.70;99.90
20773;DHT22;10546;50.674;4.616;2023-03-01T10:20:17;8.40;99.90
20773;DHT22;10546;50.674;4.616;2023-03-01T10:22:43;9.20;99.90
20773;DHT22;10546;50.674;4.616;2023-03-01T10:25:17;9.80;99.90
20773;DHT22;10546;50.674;4.616;2023-03-01T10:27:56;9.90;99.90
20773;DHT22;10546;50.674;4.616;2023-03-01T10:30:40;9.60;99.90
20773;DHT22;10546;50.674;4.616;2023-03-01T10:33:28;8.70;99.90
20773;DHT22;10546;50.674;4.616;2023-03-01T10:35:56;8.60;99.90
20773;DHT22;10546;50.674;4.616;2023-03-01T10:38:22;8.60;99.90
20773;DHT22;10546;50.674;4.616;2023-03-01T10:41:06;9.10;99.90
20773;DHT22;10546;50.674;4.616;2023-03-01T10:43:44;8.90;99.90
20773;DHT22;10546;50.674;4.616;2023-03-01T10:51:43;8.90;99.90
20773;DHT22;10546;50.674;4.616;2023-03-01T10:57:05;8.80;99.90
20773;DHT22;10546;50.674;4.616;2023-03-01T10:59:36;8.90;99.90
20773;DHT22;10546;50.674;4.616;2023-03-01T11:02:26;8.20;99.90
20773;DHT22;10546;50.674;4.616;2023-03-01T11:05:00;8.30;99.90
20773;DHT22;10546;50.674;4.616;2023-03-01T11:07:26;8.90;99.90
20773;DHT22;10546;50.674;4.616;2023-03-01T11:09:52;9.40;99.90
20773;DHT22;10546;50.674;4.616;2023-03-01T11:12:17;10.30;99.90
20773;DHT22;10546;50.674;4.616;2023-03-01T11:14:54;9.90;99.90
20773;DHT22;10546;50.674;4.616;2023-03-01T11:17:25;9.50;99.90
20773;DHT22;10546;50.674;4.616;2023-03-01T11:20:10;10.30;99.90
20773;DHT22;10546;50.674;4.616;2023-03-01T11:23:01;10.10;99.90
20773;DHT22;10546;50.674;4.616;2023-03-01T11:25:37;10.70;99.90
20773;DHT22;10546;50.674;4.616;2023-03-01T11:28:06;10.40;99.90
20773;DHT22;10546;50.674;4.616;2023-03-01T11:30:39;10.40;99.80
20773;DHT22;10546;50.674;4.616;2023-03-01T11:38:36;10.10;99.90
20773;DHT22;10546;50.674;4.616;2023-03-01T11:41:23;10.30;99.90
20773;DHT22;10546;50.674;4.616;2023-03-01T11:44:07;9.90;99.90
20773;DHT22;10546;50.674;4.616;2023-03-01T11:58:07;9.10;99.90
20773;DHT22;10546;50.674;4.616;2023-03-01T12:01:02;9.00;99.90
20773;DHT22;10546;50.674;4.616;2023-03-01T12:06:25;10.00;99.90
20773;DHT22;10546;50.674;4.616;2023-03-01T12:11:28;9.20;99.90
20773;DHT22;10546;50.674;4.616;2023-03-01T12:25:38;7.80;99.90
20773;DHT22;10546;50.674;4.616;2023-03-01T12:49:26;8.30;99.90
20773;DHT22;10546;50.674;4.616;2023-03-01T12:52:16;8.40;99.90
20773;DHT22;10546;50.674;4.616;2023-03-01T12:55:02;8.10;99.90
20773;DHT22;10546;50.674;4.616;2023-03-01T12:57:42;7.70;99.90
20773;DHT22;10546;50.674;4.616;2023-03-01T13:05:42;7.30;99.90
20773;DHT22;10546;50.674;4.616;2023-03-01T13:11:23;7.30;99.90
20773;DHT22;10546;50.674;4.616;2023-03-01T13:13:49;7.40;99.90
20773;DHT22;10546;50.674;4.616;2023-03-01T13:19:07;7.50;99.90
20773;DHT22;10546;50.674;4.616;2023-03-01T13:22:27;7.60;99.90
20773;DHT22;10546;50.674;4.616;2023-03-01T13:25:26;7.60;99.90
20773;DHT22;10546;50.674;4.616;2023-03-01T13:38:58;7.40;99.90
20773;DHT22;10546;50.674;4.616;2023-03-01T13:49:55;7.10;99.90
20773;DHT22;10546;50.674;4.616;2023-03-01T13:55:00;7.10;99.90
20773;DHT22;10546;50.674;4.616;2023-03-01T13:57:42;6.80;99.90
20773;DHT22;10546;50.674;4.616;2023-03-01T14:00:37;6.80;99.90
20773;DHT22;10546;50.674;4.616;2023-03-01T14:03:17;6.90;99.90
20773;DHT22;10546;50.674;4.616;2023-03-01T14:06:09;6.80;99.90
20773;DHT22;10546;50.674;4.616;2023-03-01T14:08:37;6.90;99.90
20773;DHT22;10546;50.674;4.616;2023-03-01T14:19:35;7.20;99.90
20773;DHT22;10546;50.674;4.616;2023-03-01T14:22:21;7.10;99.90
20773;DHT22;10546;50.674;4.616;2023-03-01T14:25:23;7.00;99.90
20773;DHT22;10546;50.674;4.616;2023-03-01T14:28:23;6.90;99.90
20773;DHT22;10546;50.674;4.616;2023-03-01T14:30:53;6.80;99.90
20773;DHT22;10546;50.674;4.616;2023-03-01T14:33:23;6.70;99.90
20773;DHT22;10546;50.674;4.616;2023-03-01T14:36:15;6.70;99.90
20773;DHT22;10546;50.674;4.616;2023-03-01T14:38:43;7.00;99.90
20773;DHT22;10546;50.674;4.616;2023-03-01T14:41:21;7.00;99.90
20773;DHT22;10546;50.674;4.616;2023-03-01T14:43:51;7.00;99.90
20773;DHT22;10546;50.674;4.616;2023-03-01T14:46:54;7.00;99.90
20773;DHT22;10546;50.674;4.616;2023-03-01T14:49:35;7.00;99.90
20773;DHT22;10546;50.674;4.616;2023-03-01T14:52:07;6.80;99.90
20773;DHT22;10546;50.674;4.616;2023-03-01T14:54:43;6.80;99.90
20773;DHT22;10546;50.674;4.616;2023-03-01T14:57:19;7.00;99.90
20773;DHT22;10546;50.674;4.616;2023-03-01T14:59:45;6.80;99.90
20773;DHT22;10546;50.674;4.616;2023-03-01T15:02:16;6.90;99.90
20773;DHT22;10546;50.674;4.616;2023-03-01T15:04:46;6.80;99.90
20773;DHT22;10546;50.674;4.616;2023-03-01T15:07:13;6.70;99.90
20773;DHT22;10546;50.674;4.616;2023-03-01T15:09:41;6.60;99.90
20773;DHT22;10546;50.674;4.616;2023-03-01T15:14:58;6.60;99.90
20773;DHT22;10546;50.674;4.616;2023-03-01T15:19:55;6.70;99.90
20773;DHT22;10546;50.674;4.616;2023-03-01T15:22:21;6.60;99.90
20773;DHT22;10546;50.674;4.616;2023-03-01T15:24:49;6.60;99.90
20773;DHT22;10546;50.674;4.616;2023-03-01T15:27:18;6.80;99.90
20773;DHT22;10546;50.674;4.616;2023-03-01T15:29:58;6.60;99.90
20773;DHT22;10546;50.674;4.616;2023-03-01T15:32:34;6.80;99.90
20773;DHT22;10546;50.674;4.616;2023-03-01T15:35:41;6.60;99.90
20773;DHT22;10546;50.674;4.616;2023-03-01T15:38:34;6.70;99.90
20773;DHT22;10546;50.674;4.616;2023-03-01T15:41:24;6.80;99.90
20773;DHT22;10546;50.674;4.616;2023-03-01T15:43:51;6.70;99.90
20773;DHT22;10546;50.674;4.616;2023-03-01T15:46:32;6.40;99.90
20773;DHT22;10546;50.674;4.616;2023-03-01T15:49:02;6.40;99.90
20773;DHT22;10546;50.674;4.616;2023-03-01T15:51:34;6.50;99.90
20773;DHT22;10546;50.674;4.616;2023-03-01T15:54:13;6.50;99.90
20773;DHT22;10546;50.674;4.616;2023-03-01T15:56:41;6.50;99.90
20773;DHT22;10546;50.674;4.616;2023-03-01T15:59:10;6.40;99.90
20773;DHT22;10546;50.674;4.616;2023-03-01T16:01:37;6.40;99.90
20773;DHT22;10546;50.674;4.616;2023-03-01T16:04:02;6.40;99.90
20773;DHT22;10546;50.674;4.616;2023-03-01T16:06:32;6.20;99.90
20773;DHT22;10546;50.674;4.616;2023-03-01T16:08:58;6.20;99.90
20773;DHT22;10546;50.674;4.616;2023-03-01T16:11:23;6.30;99.90
20773;DHT22;10546;50.674;4.616;2023-03-01T16:13:49;6.30;99.90
20773;DHT22;10546;50.674;4.616;2023-03-01T16:16:15;6.20;99.90
20773;DHT22;10546;50.674;4.616;2023-03-01T16:18:47;6.20;99.90
20773;DHT22;10546;50.674;4.616;2023-03-01T16:21:21;6.20;99.90
20773;DHT22;10546;50.674;4.616;2023-03-01T16:23:47;6.10;99.90
20773;DHT22;10546;50.674;4.616;2023-03-01T16:26:13;6.00;99.90
20773;DHT22;10546;50.674;4.616;2023-03-01T16:28:40;6.00;99.90
20773;DHT22;10546;50.674;4.616;2023-03-01T16:31:06;5.90;99.90
20773;DHT22;10546;50.674;4.616;2023-03-01T16:33:32;6.00;99.90
20773;DHT22;10546;50.674;4.616;2023-03-01T16:35:59;5.90;99.90
20773;DHT22;10546;50.674;4.616;2023-03-01T16:38:27;5.80;99.90
20773;DHT22;10546;50.674;4.616;2023-03-01T16:40:53;5.90;99.90
20773;DHT22;10546;50.674;4.616;2023-03-01T16:43:18;5.80;99.90
20773;DHT22;10546;50.674;4.616;2023-03-01T16:45:44;5.80;99.90
20773;DHT22;10546;50.674;4.616;2023-03-01T16:48:12;5.80;99.90
20773;DHT22;10546;50.674;4.616;2023-03-01T16:50:37;5.80;99.90
20773;DHT22;10546;50.674;4.616;2023-03-01T16:53:03;5.50;99.90
20773;DHT22;10546;50.674;4.616;2023-03-01T16:55:29;5.60;99.90
20773;DHT22;10546;50.674;4.616;2023-03-01T16:57:54;5.60;99.90
20773;DHT22;10546;50.674;4.616;2023-03-01T17:00:20;5.60;99.90
20773;DHT22;10546;50.674;4.616;2023-03-01T17:02:46;5.60;99.90
20773;DHT22;10546;50.674;4.616;2023-03-01T17:05:12;5.50;99.90
20773;DHT22;10546;50.674;4.616;2023-03-01T17:07:38;5.50;99.90
20773;DHT22;10546;50.674;4.616;2023-03-01T17:10:05;5.50;99.90
20773;DHT22;10546;50.674;4.616;2023-03-01T17:12:33;5.40;99.90
20773;DHT22;10546;50.674;4.616;2023-03-01T17:14:59;5.30;99.90
20773;DHT22;10546;50.674;4.616;2023-03-01T17:17:26;5.20;99.90
20773;DHT22;10546;50.674;4.616;2023-03-01T17:19:51;5.30;99.90
20773;DHT22;10546;50.674;4.616;2023-03-01T17:22:18;5.30;99.90
20773;DHT22;10546;50.674;4.616;2023-03-01T17:24:44;5.30;99.90
20773;DHT22;10546;50.674;4.616;2023-03-01T17:27:12;5.20;99.90
20773;DHT22;10546;50.674;4.616;2023-03-01T17:29:38;5.10;99.90
20773;DHT22;10546;50.674;4.616;2023-03-01T17:32:04;5.10;99.90
20773;DHT22;10546;50.674;4.616;2023-03-01T17:34:31;5.00;99.90
20773;DHT22;10546;50.674;4.616;2023-03-01T17:36:57;4.90;99.90
20773;DHT22;10546;50.674;4.616;2023-03-01T17:39:22;5.00;99.90
20773;DHT22;10546;50.674;4.616;2023-03-01T17:41:53;5.00;99.90
20773;DHT22;10546;50.674;4.616;2023-03-01T17:44:18;5.00;99.90
20773;DHT22;10546;50.674;4.616;2023-03-01T17:46:44;4.80;99.90
20773;DHT22;10546;50.674;4.616;2023-03-01T17:49:10;4.70;99.90
20773;DHT22;10546;50.674;4.616;2023-03-01T17:51:36;4.70;99.90
20773;DHT22;10546;50.674;4.616;2023-03-01T17:54:02;4.70;99.90
20773;DHT22;10546;50.674;4.616;2023-03-01T17:56:28;4.50;99.90
20773;DHT22;10546;50.674;4.616;2023-03-01T17:58:54;4.50;99.90
20773;DHT22;10546;50.674;4.616;2023-03-01T18:01:20;4.50;99.90
20773;DHT22;10546;50.674;4.616;2023-03-01T18:03:46;4.50;99.90
20773;DHT22;10546;50.674;4.616;2023-03-01T18:06:17;4.40;99.90
20773;DHT22;10546;50.674;4.616;2023-03-01T18:08:43;4.50;99.90
20773;DHT22;10546;50.674;4.616;2023-03-01T18:11:11;4.50;99.90
20773;DHT22;10546;50.674;4.616;2023-03-01T18:13:36;4.50;99.90
20773;DHT22;10546;50.674;4.616;2023-03-01T18:16:08;4.30;99.90
20773;DHT22;10546;50.674;4.616;2023-03-01T18:18:35;4.20;99.90
20773;DHT22;10546;50.674;4.616;2023-03-01T18:21:02;4.20;99.90
20773;DHT22;10546;50.674;4.616;2023-03-01T18:23:29;4.20;99.90
20773;DHT22;10546;50.674;4.616;2023-03-01T18:26:11;4.10;99.90
20773;DHT22;10546;50.674;4.616;2023-03-01T18:28:37;4.00;99.90
20773;DHT22;10546;50.674;4.616;2023-03-01T18:31:06;4.10;99.90
20773;DHT22;10546;50.674;4.616;2023-03-01T18:33:33;4.00;99.90
20773;DHT22;10546;50.674;4.616;2023-03-01T18:35:59;3.90;99.90
20773;DHT22;10546;50.674;4.616;2023-03-01T18:38:25;4.00;99.90
20773;DHT22;10546;50.674;4.616;2023-03-01T18:40:51;4.00;99.90
20773;DHT22;10546;50.674;4.616;2023-03-01T18:43:17;4.00;99.90
20773;DHT22;10546;50.674;4.616;2023-03-01T18:45:43;3.80;99.90
20773;DHT22;10546;50.674;4.616;2023-03-01T18:48:13;3.80;99.90
20773;DHT22;10546;50.674;4.616;2023-03-01T18:50:40;3.80;99.90
20773;DHT22;10546;50.674;4.616;2023-03-01T18:53:06;3.70;99.90
20773;DHT22;10546;50.674;4.616;2023-03-01T18:55:35;3.60;99.90
20773;DHT22;10546;50.674;4.616;2023-03-01T18:58:01;3.60;99.90
20773;DHT22;10546;50.674;4.616;2023-03-01T19:00:27;3.60;99.90
20773;DHT22;10546;50.674;4.616;2023-03-01T19:02:52;3.60;99.90
20773;DHT22;10546;50.674;4.616;2023-03-01T19:05:18;3.50;99.90
20773;DHT22;10546;50.674;4.616;2023-03-01T19:07:43;3.50;99.90
20773;DHT22;10546;50.674;4.616;2023-03-01T19:10:09;3.50;99.90
20773;DHT22;10546;50.674;4.616;2023-03-01T19:12:35;3.50;99.90
20773;DHT22;10546;50.674;4.616;2023-03-01T19:15:03;3.50;99.90
20773;DHT22;10546;50.674;4.616;2023-03-01T19:17:29;3.50;99.90
20773;DHT22;10546;50.674;4.616;2023-03-01T19:19:56;3.60;99.90
20773;DHT22;10546;50.674;4.616;2023-03-01T19:22:22;3.40;99.90
20773;DHT22;10546;50.674;4.616;2023-03-01T19:24:48;3.40;99.90
20773;DHT22;10546;50.674;4.616;2023-03-01T19:27:13;3.50;99.90
20773;DHT22;10546;50.674;4.616;2023-03-01T19:29:39;3.20;99.90
20773;DHT22;10546;50.674;4.616;2023-03-01T19:32:05;3.30;99.90
20773;DHT22;10546;50.674;4.616;2023-03-01T19:34:31;3.20;99.90
20773;DHT22;10546;50.674;4.616;2023-03-01T19:36:57;3.20;99.90
20773;DHT22;10546;50.674;4.616;2023-03-01T19:39:23;3.10;99.90
20773;DHT22;10546;50.674;4.616;2023-03-01T19:41:49;3.10;99.90
20773;DHT22;10546;50.674;4.616;2023-03-01T19:44:14;3.20;99.90
20773;DHT22;10546;50.674;4.616;2023-03-01T19:46:40;3.20;99.90
20773;DHT22;10546;50.674;4.616;2023-03-01T19:49:06;3.10;99.90
20773;DHT22;10546;50.674;4.616;2023-03-01T19:51:32;3.10;99.90
20773;DHT22;10546;50.674;4.616;2023-03-01T19:54:01;3.10;99.90
20773;DHT22;10546;50.674;4.616;2023-03-01T19:56:27;3.10;99.90
20773;DHT22;10546;50.674;4.616;2023-03-01T19:58:52;3.00;99.90
20773;DHT22;10546;50.674;4.616;2023-03-01T20:01:25;3.00;99.90
20773;DHT22;10546;50.674;4.616;2023-03-01T20:03:54;2.90;99.90
20773;DHT22;10546;50.674;4.616;2023-03-01T20:06:19;2.90;99.90
20773;DHT22;10546;50.674;4.616;2023-03-01T20:08:46;3.00;99.90
20773;DHT22;10546;50.674;4.616;2023-03-01T20:11:13;2.90;99.90
20773;DHT22;10546;50.674;4.616;2023-03-01T20:13:40;2.90;99.90
20773;DHT22;10546;50.674;4.616;2023-03-01T20:16:06;2.90;99.90
20773;DHT22;10546;50.674;4.616;2023-03-01T20:18:32;2.90;99.90
20773;DHT22;10546;50.674;4.616;2023-03-01T20:20:58;2.80;99.90
20773;DHT22;10546;50.674;4.616;2023-03-01T20:23:24;2.80;99.90
20773;DHT22;10546;50.674;4.616;2023-03-01T20:25:50;2.80;99.90
20773;DHT22;10546;50.674;4.616;2023-03-01T20:28:17;2.80;99.90
20773;DHT22;10546;50.674;4.616;2023-03-01T20:30:44;2.60;99.90
20773;DHT22;10546;50.674;4.616;2023-03-01T20:33:10;2.80;99.90
20773;DHT22;10546;50.674;4.616;2023-03-01T20:35:40;2.60;99.90
20773;DHT22;10546;50.674;4.616;2023-03-01T20:38:05;2.70;99.90
20773;DHT22;10546;50.674;4.616;2023-03-01T20:40:31;2.60;99.90
20773;DHT22;10546;50.674;4.616;2023-03-01T20:42:57;2.60;99.90
20773;DHT22;10546;50.674;4.616;2023-03-01T20:45:23;2.60;99.90
20773;DHT22;10546;50.674;4.616;2023-03-01T20:47:50;2.70;99.90
20773;DHT22;10546;50.674;4.616;2023-03-01T20:50:16;2.60;99.90
20773;DHT22;10546;50.674;4.616;2023-03-01T20:52:43;2.60;99.90
20773;DHT22;10546;50.674;4.616;2023-03-01T20:55:09;2.60;99.90
20773;DHT22;10546;50.674;4.616;2023-03-01T20:57:35;2.60;99.90
20773;DHT22;10546;50.674;4.616;2023-03-01T21:00:01;2.50;99.90
20773;DHT22;10546;50.674;4.616;2023-03-01T21:02:27;2.60;99.90
20773;DHT22;10546;50.674;4.616;2023-03-01T21:04:52;2.60;99.90
20773;DHT22;10546;50.674;4.616;2023-03-01T21:07:18;2.50;99.90
20773;DHT22;10546;50.674;4.616;2023-03-01T21:09:44;2.60;99.90
